sensor_id;sensor_type;location;lat;lon;timestamp;pressure;altitude;pressure_sealevel;temperature;humidity
46464;BME280;32161;48.148;-1.554;2022-07-25T00:01:56;100776.06;;;23.06;61.36
46464;BME280;32161;48.148;-1.554;2022-07-25T00:04:23;100785.66;;;23.00;61.78
46464;BME280;32161;48.148;-1.554;2022-07-25T00:06:51;100788.84;;;22.93;61.63
46464;BME280;32161;48.148;-1.554;2022-07-25T00:09:19;100782.59;;;22.87;62.35
46464;BME280;32161;48.148;-1.554;2022-07-25T00:11:46;100784.34;;;22.83;62.13
46464;BME280;32161;48.148;-1.554;2022-07-25T00:14:15;100790.50;;;22.80;62.35
46464;BME280;32161;48.148;-1.554;2022-07-25T00:16:43;100793.69;;;22.74;62.60
46464;BME280;32161;48.148;-1.554;2022-07-25T00:19:10;100798.22;;;22.70;62.81
46464;BME280;32161;48.148;-1.554;2022-07-25T00:21:38;100788.69;;;22.62;63.39
46464;BME280;32161;48.148;-1.554;2022-07-25T00:24:06;100789.31;;;22.59;63.29
46464;BME280;32161;48.148;-1.554;2022-07-25T00:26:34;100785.72;;;22.58;63.55
46464;BME280;32161;48.148;-1.554;2022-07-25T00:29:02;100780.78;;;22.55;63.61
46464;BME280;32161;48.148;-1.554;2022-07-25T00:31:31;100780.91;;;22.50;63.63
46464;BME280;32161;48.148;-1.554;2022-07-25T00:33:58;100782.13;;;22.44;64.30
46464;BME280;32161;48.148;-1.554;2022-07-25T00:36:26;100785.00;;;22.39;64.41
46464;BME280;32161;48.148;-1.554;2022-07-25T00:38:54;100783.19;;;22.34;64.74
46464;BME280;32161;48.148;-1.554;2022-07-25T00:41:21;100775.81;;;22.30;64.72
46464;BME280;32161;48.148;-1.554;2022-07-25T00:43:49;100786.16;;;22.24;64.90
46464;BME280;32161;48.148;-1.554;2022-07-25T00:46:17;100778.88;;;22.14;65.51
46464;BME280;32161;48.148;-1.554;2022-07-25T00:48:46;100779.44;;;22.11;65.73
46464;BME280;32161;48.148;-1.554;2022-07-25T00:51:15;100779.34;;;22.03;66.09
46464;BME280;32161;48.148;-1.554;2022-07-25T00:53:43;100783.88;;;21.99;66.22
46464;BME280;32161;48.148;-1.554;2022-07-25T00:56:11;100787.44;;;21.99;66.51
46464;BME280;32161;48.148;-1.554;2022-07-25T00:58:38;100786.09;;;21.97;66.55
46464;BME280;32161;48.148;-1.554;2022-07-25T01:01:06;100788.66;;;21.93;66.64
46464;BME280;32161;48.148;-1.554;2022-07-25T01:03:34;100781.88;;;21.85;66.78
46464;BME280;32161;48.148;-1.554;2022-07-25T01:06:03;100780.03;;;21.81;67.47
46464;BME280;32161;48.148;-1.554;2022-07-25T01:08:31;100775.63;;;21.80;67.61
46464;BME280;32161;48.148;-1.554;2022-07-25T01:10:59;100777.88;;;21.78;67.48
46464;BME280;32161;48.148;-1.554;2022-07-25T01:13:27;100781.44;;;21.78;67.96
46464;BME280;32161;48.148;-1.554;2022-07-25T01:15:54;100777.16;;;21.72;68.19
46464;BME280;32161;48.148;-1.554;2022-07-25T01:18:22;100777.75;;;21.69;68.34
46464;BME280;32161;48.148;-1.554;2022-07-25T01:20:51;100785.25;;;21.68;68.42
46464;BME280;32161;48.148;-1.554;2022-07-25T01:23:18;100783.06;;;21.65;68.57
46464;BME280;32161;48.148;-1.554;2022-07-25T01:25:46;100779.50;;;21.65;68.65
46464;BME280;32161;48.148;-1.554;2022-07-25T01:28:14;100780.09;;;21.62;68.94
46464;BME280;32161;48.148;-1.554;2022-07-25T01:30:41;100783.25;;;21.55;69.32
46464;BME280;32161;48.148;-1.554;2022-07-25T01:33:10;100784.38;;;21.54;69.37
46464;BME280;32161;48.148;-1.554;2022-07-25T01:35:41;100775.53;;;21.52;69.82
46464;BME280;32161;48.148;-1.554;2022-07-25T01:38:10;100784.97;;;21.51;69.75
46464;BME280;32161;48.148;-1.554;2022-07-25T01:40:38;100779.44;;;21.51;70.04
46464;BME280;32161;48.148;-1.554;2022-07-25T01:43:06;100774.22;;;21.50;70.20
46464;BME280;32161;48.148;-1.554;2022-07-25T01:45:33;100778.72;;;21.45;70.41
46464;BME280;32161;48.148;-1.554;2022-07-25T01:48:01;100787.31;;;21.44;70.13
46464;BME280;32161;48.148;-1.554;2022-07-25T01:50:29;100779.00;;;21.44;70.54
46464;BME280;32161;48.148;-1.554;2022-07-25T01:52:57;100778.50;;;21.42;70.52
46464;BME280;32161;48.148;-1.554;2022-07-25T01:55:26;100778.28;;;21.38;70.91
46464;BME280;32161;48.148;-1.554;2022-07-25T01:57:53;100769.22;;;21.33;71.40
46464;BME280;32161;48.148;-1.554;2022-07-25T02:00:21;100771.75;;;21.29;71.83
46464;BME280;32161;48.148;-1.554;2022-07-25T02:02:48;100768.47;;;21.27;72.03
46464;BME280;32161;48.148;-1.554;2022-07-25T02:05:37;100769.28;;;21.28;72.33
46464;BME280;32161;48.148;-1.554;2022-07-25T02:08:05;100769.28;;;21.28;72.59
46464;BME280;32161;48.148;-1.554;2022-07-25T02:10:34;100767.94;;;21.25;73.05
46464;BME280;32161;48.148;-1.554;2022-07-25T02:13:01;100772.16;;;21.23;73.01
46464;BME280;32161;48.148;-1.554;2022-07-25T02:15:29;100768.84;;;21.20;73.41
46464;BME280;32161;48.148;-1.554;2022-07-25T02:17:57;100773.25;;;21.21;73.43
46464;BME280;32161;48.148;-1.554;2022-07-25T02:20:24;100780.44;;;21.23;73.56
46464;BME280;32161;48.148;-1.554;2022-07-25T02:22:52;100774.91;;;21.23;73.52
46464;BME280;32161;48.148;-1.554;2022-07-25T02:25:20;100784.31;;;21.21;73.85
46464;BME280;32161;48.148;-1.554;2022-07-25T02:27:49;100787.97;;;21.17;74.21
46464;BME280;32161;48.148;-1.554;2022-07-25T02:30:16;100782.75;;;21.15;74.39
46464;BME280;32161;48.148;-1.554;2022-07-25T02:32:44;100780.28;;;21.14;74.55
46464;BME280;32161;48.148;-1.554;2022-07-25T02:35:11;100771.72;;;21.15;74.96
46464;BME280;32161;48.148;-1.554;2022-07-25T02:37:39;100782.22;;;21.13;75.15
46464;BME280;32161;48.148;-1.554;2022-07-25T02:40:08;100783.91;;;21.14;75.23
46464;BME280;32161;48.148;-1.554;2022-07-25T02:42:36;100789.44;;;21.14;75.60
46464;BME280;32161;48.148;-1.554;2022-07-25T02:45:07;100789.13;;;21.16;75.89
46464;BME280;32161;48.148;-1.554;2022-07-25T02:47:34;100784.41;;;21.16;75.72
46464;BME280;32161;48.148;-1.554;2022-07-25T02:50:02;100786.56;;;21.19;75.97
46464;BME280;32161;48.148;-1.554;2022-07-25T02:52:30;100780.44;;;21.23;76.03
46464;BME280;32161;48.148;-1.554;2022-07-25T02:54:58;100783.13;;;21.28;76.07
46464;BME280;32161;48.148;-1.554;2022-07-25T02:57:25;100777.00;;;21.31;76.02
46464;BME280;32161;48.148;-1.554;2022-07-25T02:59:53;100778.38;;;21.33;76.06
46464;BME280;32161;48.148;-1.554;2022-07-25T03:02:22;100772.22;;;21.36;76.00
46464;BME280;32161;48.148;-1.554;2022-07-25T03:04:49;100772.75;;;21.38;76.32
46464;BME280;32161;48.148;-1.554;2022-07-25T03:07:17;100769.66;;;21.40;76.28
46464;BME280;32161;48.148;-1.554;2022-07-25T03:09:44;100780.13;;;21.43;76.41
46464;BME280;32161;48.148;-1.554;2022-07-25T03:12:12;100785.56;;;21.48;76.55
46464;BME280;32161;48.148;-1.554;2022-07-25T03:14:40;100768.38;;;21.51;76.40
46464;BME280;32161;48.148;-1.554;2022-07-25T03:17:07;100771.97;;;21.52;76.52
46464;BME280;32161;48.148;-1.554;2022-07-25T03:19:36;100776.41;;;21.53;76.63
46464;BME280;32161;48.148;-1.554;2022-07-25T03:22:04;100768.00;;;21.58;76.84
46464;BME280;32161;48.148;-1.554;2022-07-25T03:24:31;100772.28;;;21.64;76.65
46464;BME280;32161;48.148;-1.554;2022-07-25T03:26:59;100768.72;;;21.63;76.75
46464;BME280;32161;48.148;-1.554;2022-07-25T03:29:27;100763.41;;;21.67;76.93
46464;BME280;32161;48.148;-1.554;2022-07-25T03:31:54;100767.50;;;21.69;76.75
46464;BME280;32161;48.148;-1.554;2022-07-25T03:34:22;100766.09;;;21.72;76.61
46464;BME280;32161;48.148;-1.554;2022-07-25T03:36:51;100769.56;;;21.78;76.76
46464;BME280;32161;48.148;-1.554;2022-07-25T03:39:19;100774.78;;;21.79;76.79
46464;BME280;32161;48.148;-1.554;2022-07-25T03:41:47;100764.84;;;21.78;76.80
46464;BME280;32161;48.148;-1.554;2022-07-25T03:44:14;100765.88;;;21.82;76.74
46464;BME280;32161;48.148;-1.554;2022-07-25T03:46:42;100767.53;;;21.83;76.69
46464;BME280;32161;48.148;-1.554;2022-07-25T03:49:09;100763.84;;;21.88;76.74
46464;BME280;32161;48.148;-1.554;2022-07-25T03:51:37;100746.44;;;21.87;77.07
46464;BME280;32161;48.148;-1.554;2022-07-25T03:54:06;100751.22;;;21.82;77.36
46464;BME280;32161;48.148;-1.554;2022-07-25T03:56:40;100759.25;;;21.83;77.38
46464;BME280;32161;48.148;-1.554;2022-07-25T03:59:10;100767.84;;;21.82;77.60
46464;BME280;32161;48.148;-1.554;2022-07-25T04:01:38;100769.47;;;21.83;77.99
46464;BME280;32161;48.148;-1.554;2022-07-25T04:04:06;100770.59;;;21.82;77.95
46464;BME280;32161;48.148;-1.554;2022-07-25T04:06:35;100777.28;;;21.81;77.87
46464;BME280;32161;48.148;-1.554;2022-07-25T04:09:04;100777.88;;;21.78;78.86
46464;BME280;32161;48.148;-1.554;2022-07-25T04:11:32;100770.59;;;21.68;79.37
46464;BME280;32161;48.148;-1.554;2022-07-25T04:14:01;100769.75;;;21.67;80.10
46464;BME280;32161;48.148;-1.554;2022-07-25T04:16:29;100769.75;;;21.67;80.52
46464;BME280;32161;48.148;-1.554;2022-07-25T04:18:57;100769.13;;;21.70;80.66
46464;BME280;32161;48.148;-1.554;2022-07-25T04:21:25;100770.78;;;21.72;81.18
46464;BME280;32161;48.148;-1.554;2022-07-25T04:23:53;100771.84;;;21.76;81.08
46464;BME280;32161;48.148;-1.554;2022-07-25T04:26:22;100773.97;;;21.79;81.26
46464;BME280;32161;48.148;-1.554;2022-07-25T04:28:49;100768.53;;;21.74;81.39
46464;BME280;32161;48.148;-1.554;2022-07-25T04:31:17;100771.63;;;21.72;81.80
46464;BME280;32161;48.148;-1.554;2022-07-25T04:33:45;100767.19;;;21.71;81.55
46464;BME280;32161;48.148;-1.554;2022-07-25T04:36:12;100773.47;;;21.77;82.09
46464;BME280;32161;48.148;-1.554;2022-07-25T04:38:40;100773.69;;;21.80;81.92
46464;BME280;32161;48.148;-1.554;2022-07-25T04:41:08;100775.91;;;21.78;82.43
46464;BME280;32161;48.148;-1.554;2022-07-25T04:43:37;100779.50;;;21.79;82.23
46464;BME280;32161;48.148;-1.554;2022-07-25T04:46:05;100784.44;;;21.82;82.29
46464;BME280;32161;48.148;-1.554;2022-07-25T04:48:33;100785.78;;;21.84;82.40
46464;BME280;32161;48.148;-1.554;2022-07-25T04:51:00;100795.81;;;21.80;82.29
46464;BME280;32161;48.148;-1.554;2022-07-25T04:53:28;100792.94;;;21.85;81.68
46464;BME280;32161;48.148;-1.554;2022-07-25T04:55:56;100792.63;;;21.87;81.98
46464;BME280;32161;48.148;-1.554;2022-07-25T04:58:23;100789.38;;;21.85;81.85
46464;BME280;32161;48.148;-1.554;2022-07-25T05:00:52;100796.25;;;21.87;82.04
46464;BME280;32161;48.148;-1.554;2022-07-25T05:03:20;100796.75;;;21.89;82.02
46464;BME280;32161;48.148;-1.554;2022-07-25T05:05:47;100791.53;;;21.88;82.25
46464;BME280;32161;48.148;-1.554;2022-07-25T05:08:15;100786.50;;;21.90;81.83
46464;BME280;32161;48.148;-1.554;2022-07-25T05:10:43;100791.75;;;21.91;81.77
46464;BME280;32161;48.148;-1.554;2022-07-25T05:13:10;100787.13;;;22.01;81.60
46464;BME280;32161;48.148;-1.554;2022-07-25T05:15:38;100795.84;;;22.08;81.06
46464;BME280;32161;48.148;-1.554;2022-07-25T05:18:07;100799.66;;;22.12;80.92
46464;BME280;32161;48.148;-1.554;2022-07-25T05:20:34;100801.19;;;22.04;81.39
46464;BME280;32161;48.148;-1.554;2022-07-25T05:23:02;100800.56;;;22.07;80.78
46464;BME280;32161;48.148;-1.554;2022-07-25T05:25:30;100803.41;;;22.02;81.27
46464;BME280;32161;48.148;-1.554;2022-07-25T05:27:57;100799.34;;;22.00;80.85
46464;BME280;32161;48.148;-1.554;2022-07-25T05:30:25;100798.81;;;21.98;81.10
46464;BME280;32161;48.148;-1.554;2022-07-25T05:32:53;100796.47;;;22.05;80.20
46464;BME280;32161;48.148;-1.554;2022-07-25T05:35:22;100796.88;;;22.12;80.26
46464;BME280;32161;48.148;-1.554;2022-07-25T05:37:50;100801.84;;;22.15;79.70
46464;BME280;32161;48.148;-1.554;2022-07-25T05:40:17;100798.16;;;22.20;79.35
46464;BME280;32161;48.148;-1.554;2022-07-25T05:42:45;100812.53;;;22.22;79.33
46464;BME280;32161;48.148;-1.554;2022-07-25T05:45:13;100808.31;;;22.24;79.46
46464;BME280;32161;48.148;-1.554;2022-07-25T05:47:40;100806.13;;;22.21;79.11
46464;BME280;32161;48.148;-1.554;2022-07-25T05:50:08;100815.56;;;22.20;78.62
46464;BME280;32161;48.148;-1.554;2022-07-25T05:52:37;100813.63;;;22.21;78.37
46464;BME280;32161;48.148;-1.554;2022-07-25T05:55:06;100805.44;;;22.15;79.03
46464;BME280;32161;48.148;-1.554;2022-07-25T05:57:34;100811.47;;;22.17;78.19
46464;BME280;32161;48.148;-1.554;2022-07-25T06:00:04;100811.53;;;22.12;78.37
46464;BME280;32161;48.148;-1.554;2022-07-25T06:02:31;100817.63;;;22.14;77.84
46464;BME280;32161;48.148;-1.554;2022-07-25T06:04:59;100822.53;;;22.17;77.79
46464;BME280;32161;48.148;-1.554;2022-07-25T06:07:27;100811.03;;;22.10;77.15
46464;BME280;32161;48.148;-1.554;2022-07-25T06:09:56;100825.69;;;22.11;76.77
46464;BME280;32161;48.148;-1.554;2022-07-25T06:12:23;100824.28;;;22.13;76.25
46464;BME280;32161;48.148;-1.554;2022-07-25T06:14:51;100820.88;;;22.03;76.25
46464;BME280;32161;48.148;-1.554;2022-07-25T06:17:19;100823.22;;;21.96;75.81
46464;BME280;32161;48.148;-1.554;2022-07-25T06:19:47;100835.22;;;21.91;76.10
46464;BME280;32161;48.148;-1.554;2022-07-25T06:22:14;100835.22;;;21.91;76.14
46464;BME280;32161;48.148;-1.554;2022-07-25T06:24:42;100837.88;;;21.96;76.29
46464;BME280;32161;48.148;-1.554;2022-07-25T06:27:11;100842.44;;;21.87;76.58
46464;BME280;32161;48.148;-1.554;2022-07-25T06:29:38;100853.50;;;21.87;76.27
46464;BME280;32161;48.148;-1.554;2022-07-25T06:32:06;100845.84;;;21.84;76.25
46464;BME280;32161;48.148;-1.554;2022-07-25T06:34:34;100846.00;;;21.74;76.70
46464;BME280;32161;48.148;-1.554;2022-07-25T06:37:01;100861.25;;;21.71;76.78
46464;BME280;32161;48.148;-1.554;2022-07-25T06:39:29;100861.09;;;21.81;76.22
46464;BME280;32161;48.148;-1.554;2022-07-25T06:41:57;100868.50;;;21.86;75.73
46464;BME280;32161;48.148;-1.554;2022-07-25T06:44:26;100866.53;;;21.86;74.95
46464;BME280;32161;48.148;-1.554;2022-07-25T06:46:53;100870.13;;;21.87;75.09
46464;BME280;32161;48.148;-1.554;2022-07-25T06:49:21;100870.66;;;21.89;74.90
46464;BME280;32161;48.148;-1.554;2022-07-25T06:51:48;100869.84;;;21.88;75.15
46464;BME280;32161;48.148;-1.554;2022-07-25T06:54:16;100870.78;;;21.98;75.21
46464;BME280;32161;48.148;-1.554;2022-07-25T06:56:44;100874.88;;;22.19;75.25
46464;BME280;32161;48.148;-1.554;2022-07-25T06:59:12;100873.94;;;22.24;74.68
46464;BME280;32161;48.148;-1.554;2022-07-25T07:01:41;100883.59;;;22.26;73.94
46464;BME280;32161;48.148;-1.554;2022-07-25T07:04:09;100887.81;;;22.37;73.22
46464;BME280;32161;48.148;-1.554;2022-07-25T07:06:37;100877.63;;;22.33;72.42
46464;BME280;32161;48.148;-1.554;2022-07-25T07:09:05;100880.63;;;22.36;72.51
46464;BME280;32161;48.148;-1.554;2022-07-25T07:11:33;100886.16;;;22.36;72.36
46464;BME280;32161;48.148;-1.554;2022-07-25T07:14:01;100895.19;;;22.42;72.53
46464;BME280;32161;48.148;-1.554;2022-07-25T07:16:29;100890.09;;;22.49;72.43
46464;BME280;32161;48.148;-1.554;2022-07-25T07:18:58;100901.78;;;22.46;71.08
46464;BME280;32161;48.148;-1.554;2022-07-25T07:21:25;100902.78;;;22.50;71.61
46464;BME280;32161;48.148;-1.554;2022-07-25T07:23:53;100909.47;;;22.49;71.89
46464;BME280;32161;48.148;-1.554;2022-07-25T07:26:21;100902.41;;;22.57;71.47
46464;BME280;32161;48.148;-1.554;2022-07-25T07:28:48;100906.09;;;22.66;70.39
46464;BME280;32161;48.148;-1.554;2022-07-25T07:31:19;100905.38;;;22.74;69.58
46464;BME280;32161;48.148;-1.554;2022-07-25T07:33:47;100908.56;;;22.81;68.54
46464;BME280;32161;48.148;-1.554;2022-07-25T07:36:16;100906.91;;;22.80;68.54
46464;BME280;32161;48.148;-1.554;2022-07-25T07:38:44;100912.66;;;22.84;69.41
46464;BME280;32161;48.148;-1.554;2022-07-25T07:41:13;100910.00;;;23.06;67.09
46464;BME280;32161;48.148;-1.554;2022-07-25T07:43:41;100916.78;;;23.00;66.77
46464;BME280;32161;48.148;-1.554;2022-07-25T07:46:08;100915.84;;;23.05;66.36
46464;BME280;32161;48.148;-1.554;2022-07-25T07:48:37;100930.72;;;23.09;66.61
46464;BME280;32161;48.148;-1.554;2022-07-25T07:51:05;100927.47;;;23.07;66.10
46464;BME280;32161;48.148;-1.554;2022-07-25T07:53:34;100932.28;;;23.01;65.76
46464;BME280;32161;48.148;-1.554;2022-07-25T07:56:19;100930.25;;;23.07;66.06
46464;BME280;32161;48.148;-1.554;2022-07-25T07:58:46;100930.19;;;23.21;65.91
46464;BME280;32161;48.148;-1.554;2022-07-25T08:01:14;100935.00;;;23.29;65.83
46464;BME280;32161;48.148;-1.554;2022-07-25T08:03:41;100940.16;;;23.35;64.13
46464;BME280;32161;48.148;-1.554;2022-07-25T08:06:10;100940.75;;;23.46;64.29
46464;BME280;32161;48.148;-1.554;2022-07-25T08:08:39;100949.94;;;23.55;63.73
46464;BME280;32161;48.148;-1.554;2022-07-25T08:11:06;100948.91;;;23.65;63.84
46464;BME280;32161;48.148;-1.554;2022-07-25T08:13:34;100948.09;;;23.64;62.86
46464;BME280;32161;48.148;-1.554;2022-07-25T08:16:04;100949.34;;;23.58;62.74
46464;BME280;32161;48.148;-1.554;2022-07-25T08:18:32;100953.88;;;23.68;61.89
46464;BME280;32161;48.148;-1.554;2022-07-25T08:21:01;100960.75;;;23.57;62.07
46464;BME280;32161;48.148;-1.554;2022-07-25T08:23:30;100953.66;;;23.64;62.13
46464;BME280;32161;48.148;-1.554;2022-07-25T08:26:01;100956.31;;;23.70;61.93
46464;BME280;32161;48.148;-1.554;2022-07-25T08:28:29;100964.13;;;23.68;62.55
46464;BME280;32161;48.148;-1.554;2022-07-25T08:30:57;100960.31;;;23.63;62.42
46464;BME280;32161;48.148;-1.554;2022-07-25T08:33:25;100960.25;;;23.69;61.91
46464;BME280;32161;48.148;-1.554;2022-07-25T08:35:54;100966.53;;;23.83;62.25
46464;BME280;32161;48.148;-1.554;2022-07-25T08:38:26;100959.97;;;23.79;62.59
46464;BME280;32161;48.148;-1.554;2022-07-25T08:40:56;100959.78;;;23.75;62.55
46464;BME280;32161;48.148;-1.554;2022-07-25T08:43:26;100973.38;;;23.77;61.88
46464;BME280;32161;48.148;-1.554;2022-07-25T08:46:00;100972.34;;;23.73;61.80
46464;BME280;32161;48.148;-1.554;2022-07-25T08:48:28;100972.84;;;23.75;62.29
46464;BME280;32161;48.148;-1.554;2022-07-25T08:50:56;100983.25;;;23.55;61.86
46464;BME280;32161;48.148;-1.554;2022-07-25T08:53:26;100972.22;;;23.28;62.82
46464;BME280;32161;48.148;-1.554;2022-07-25T08:55:55;100979.72;;;23.41;62.76
46464;BME280;32161;48.148;-1.554;2022-07-25T08:58:24;100974.94;;;23.55;63.24
46464;BME280;32161;48.148;-1.554;2022-07-25T09:00:52;100972.34;;;23.73;62.29
46464;BME280;32161;48.148;-1.554;2022-07-25T09:03:19;100972.56;;;23.99;62.31
46464;BME280;32161;48.148;-1.554;2022-07-25T09:05:47;100973.84;;;24.15;61.37
46464;BME280;32161;48.148;-1.554;2022-07-25T09:08:16;100980.00;;;24.34;60.24
46464;BME280;32161;48.148;-1.554;2022-07-25T09:10:47;100978.25;;;24.39;59.36
46464;BME280;32161;48.148;-1.554;2022-07-25T09:13:16;100987.94;;;24.41;59.13
46464;BME280;32161;48.148;-1.554;2022-07-25T09:15:47;100983.19;;;24.42;58.83
46464;BME280;32161;48.148;-1.554;2022-07-25T09:18:17;100991.56;;;24.28;59.39
46464;BME280;32161;48.148;-1.554;2022-07-25T09:20:47;100996.88;;;24.16;59.21
46464;BME280;32161;48.148;-1.554;2022-07-25T09:23:27;100992.69;;;24.27;59.02
46464;BME280;32161;48.148;-1.554;2022-07-25T09:26:02;101004.00;;;24.30;58.75
46464;BME280;32161;48.148;-1.554;2022-07-25T09:28:30;101000.69;;;24.42;58.62
46464;BME280;32161;48.148;-1.554;2022-07-25T09:31:00;101002.50;;;24.47;57.79
46464;BME280;32161;48.148;-1.554;2022-07-25T09:33:28;101002.06;;;24.53;56.45
46464;BME280;32161;48.148;-1.554;2022-07-25T09:35:56;100998.50;;;24.62;56.21
46464;BME280;32161;48.148;-1.554;2022-07-25T09:38:25;101000.03;;;24.68;56.77
46464;BME280;32161;48.148;-1.554;2022-07-25T09:40:55;100993.53;;;24.81;57.08
46464;BME280;32161;48.148;-1.554;2022-07-25T09:43:34;101001.22;;;24.84;55.96
46464;BME280;32161;48.148;-1.554;2022-07-25T09:46:04;100998.81;;;24.91;55.98
46464;BME280;32161;48.148;-1.554;2022-07-25T09:48:32;101002.06;;;24.93;56.35
46464;BME280;32161;48.148;-1.554;2022-07-25T09:51:00;101001.59;;;24.91;55.51
46464;BME280;32161;48.148;-1.554;2022-07-25T09:53:28;100999.28;;;24.93;56.05
46464;BME280;32161;48.148;-1.554;2022-07-25T09:55:56;100997.53;;;25.06;56.16
46464;BME280;32161;48.148;-1.554;2022-07-25T09:58:24;101004.16;;;25.10;56.43
46464;BME280;32161;48.148;-1.554;2022-07-25T10:00:59;101003.56;;;25.30;55.65
46464;BME280;32161;48.148;-1.554;2022-07-25T10:03:37;101013.41;;;25.05;55.25
46464;BME280;32161;48.148;-1.554;2022-07-25T10:06:18;101011.56;;;24.92;55.20
46464;BME280;32161;48.148;-1.554;2022-07-25T10:08:48;101004.56;;;24.95;55.63
46464;BME280;32161;48.148;-1.554;2022-07-25T10:11:21;100999.75;;;25.18;55.34
46464;BME280;32161;48.148;-1.554;2022-07-25T10:13:51;101005.53;;;25.30;56.13
46464;BME280;32161;48.148;-1.554;2022-07-25T10:16:21;101014.25;;;25.54;55.83
46464;BME280;32161;48.148;-1.554;2022-07-25T10:18:52;101018.34;;;25.74;54.83
46464;BME280;32161;48.148;-1.554;2022-07-25T10:21:20;101018.41;;;25.92;55.70
46464;BME280;32161;48.148;-1.554;2022-07-25T10:24:00;101018.25;;;25.88;54.54
46464;BME280;32161;48.148;-1.554;2022-07-25T10:26:29;101018.91;;;25.85;54.45
46464;BME280;32161;48.148;-1.554;2022-07-25T10:28:58;101027.09;;;25.90;54.95
46464;BME280;32161;48.148;-1.554;2022-07-25T10:31:35;101028.75;;;26.00;55.34
46464;BME280;32161;48.148;-1.554;2022-07-25T10:34:09;101026.63;;;26.14;54.65
46464;BME280;32161;48.148;-1.554;2022-07-25T10:36:44;101027.22;;;26.28;54.18
46464;BME280;32161;48.148;-1.554;2022-07-25T10:39:15;101029.69;;;26.39;53.35
46464;BME280;32161;48.148;-1.554;2022-07-25T10:41:48;101031.66;;;26.21;53.18
46464;BME280;32161;48.148;-1.554;2022-07-25T10:44:16;101026.59;;;26.05;53.25
46464;BME280;32161;48.148;-1.554;2022-07-25T10:46:44;101036.75;;;26.01;52.29
46464;BME280;32161;48.148;-1.554;2022-07-25T10:49:18;101031.84;;;26.07;52.92
46464;BME280;32161;48.148;-1.554;2022-07-25T10:51:56;101047.25;;;26.30;52.83
46464;BME280;32161;48.148;-1.554;2022-07-25T10:54:24;101049.22;;;26.30;52.50
46464;BME280;32161;48.148;-1.554;2022-07-25T10:56:54;101053.81;;;26.26;52.65
46464;BME280;32161;48.148;-1.554;2022-07-25T10:59:31;101051.34;;;26.24;53.86
46464;BME280;32161;48.148;-1.554;2022-07-25T11:02:00;101051.69;;;26.49;53.67
46464;BME280;32161;48.148;-1.554;2022-07-25T11:04:29;101060.38;;;26.56;51.67
46464;BME280;32161;48.148;-1.554;2022-07-25T11:07:06;101050.84;;;26.57;50.47
46464;BME280;32161;48.148;-1.554;2022-07-25T11:09:34;101055.63;;;26.57;51.27
46464;BME280;32161;48.148;-1.554;2022-07-25T11:12:03;101058.53;;;26.69;50.54
46464;BME280;32161;48.148;-1.554;2022-07-25T11:14:33;101049.81;;;26.70;50.56
46464;BME280;32161;48.148;-1.554;2022-07-25T11:17:16;101067.91;;;26.56;49.52
46464;BME280;32161;48.148;-1.554;2022-07-25T11:19:56;101069.88;;;26.38;49.23
46464;BME280;32161;48.148;-1.554;2022-07-25T11:22:24;101060.19;;;26.26;49.80
46464;BME280;32161;48.148;-1.554;2022-07-25T11:24:53;101074.28;;;26.13;49.80
46464;BME280;32161;48.148;-1.554;2022-07-25T11:27:24;101061.84;;;26.10;50.15
46464;BME280;32161;48.148;-1.554;2022-07-25T11:29:53;101067.59;;;26.22;50.30
46464;BME280;32161;48.148;-1.554;2022-07-25T11:32:38;101058.72;;;26.38;50.23
46464;BME280;32161;48.148;-1.554;2022-07-25T11:35:08;101056.25;;;26.45;50.54
46464;BME280;32161;48.148;-1.554;2022-07-25T11:37:39;101068.56;;;26.52;50.48
46464;BME280;32161;48.148;-1.554;2022-07-25T11:40:08;101060.97;;;26.79;49.47
46464;BME280;32161;48.148;-1.554;2022-07-25T11:42:41;101053.03;;;26.90;48.96
46464;BME280;32161;48.148;-1.554;2022-07-25T11:45:17;101053.50;;;27.00;49.58
46464;BME280;32161;48.148;-1.554;2022-07-25T11:47:47;101055.97;;;27.11;48.94
46464;BME280;32161;48.148;-1.554;2022-07-25T11:50:16;101055.13;;;27.10;48.33
46464;BME280;32161;48.148;-1.554;2022-07-25T11:52:44;101054.97;;;27.07;48.43
46464;BME280;32161;48.148;-1.554;2022-07-25T11:55:16;101057.41;;;27.08;47.96
46464;BME280;32161;48.148;-1.554;2022-07-25T11:57:46;101056.28;;;27.00;48.09
46464;BME280;32161;48.148;-1.554;2022-07-25T12:00:17;101049.53;;;27.10;47.75
46464;BME280;32161;48.148;-1.554;2022-07-25T12:02:46;101047.91;;;27.18;47.74
46464;BME280;32161;48.148;-1.554;2022-07-25T12:05:19;101052.66;;;27.09;47.73
46464;BME280;32161;48.148;-1.554;2022-07-25T12:07:50;101049.00;;;27.25;48.16
46464;BME280;32161;48.148;-1.554;2022-07-25T12:10:22;101059.41;;;27.46;47.51
46464;BME280;32161;48.148;-1.554;2022-07-25T12:12:53;101057.63;;;27.41;47.64
46464;BME280;32161;48.148;-1.554;2022-07-25T12:15:23;101057.63;;;27.41;47.66
46464;BME280;32161;48.148;-1.554;2022-07-25T12:17:53;101063.50;;;27.48;47.78
46464;BME280;32161;48.148;-1.554;2022-07-25T12:20:24;101066.09;;;27.54;47.50
46464;BME280;32161;48.148;-1.554;2022-07-25T12:22:56;101063.59;;;27.61;47.91
46464;BME280;32161;48.148;-1.554;2022-07-25T12:25:25;101062.38;;;27.79;48.13
46464;BME280;32161;48.148;-1.554;2022-07-25T12:27:55;101050.22;;;27.96;47.08
46464;BME280;32161;48.148;-1.554;2022-07-25T12:30:24;101056.69;;;28.09;46.25
46464;BME280;32161;48.148;-1.554;2022-07-25T12:32:52;101056.06;;;28.24;46.31
46464;BME280;32161;48.148;-1.554;2022-07-25T12:35:22;101061.06;;;28.39;45.84
46464;BME280;32161;48.148;-1.554;2022-07-25T12:37:50;101046.66;;;28.50;45.06
46464;BME280;32161;48.148;-1.554;2022-07-25T12:40:19;101047.38;;;28.59;44.74
46464;BME280;32161;48.148;-1.554;2022-07-25T12:42:48;101063.22;;;28.55;45.50
46464;BME280;32161;48.148;-1.554;2022-07-25T12:45:16;101045.88;;;28.61;45.50
46464;BME280;32161;48.148;-1.554;2022-07-25T12:47:45;101049.19;;;28.76;45.15
46464;BME280;32161;48.148;-1.554;2022-07-25T12:50:14;101035.78;;;28.81;44.38